Aviation Digital Data Service (ADDS)

Output produced by METARs form (0940 UTC 23 July 2019)
found at http://www.aviationweather.gov/metar/data/
 
METAR text: RJFY 212150Z 23005KT 9999 FEW003 SCT010 BKN015 26/24 Q1011 RMK 1ST003 4CU010 7CU015 A2986
Conditions at: RJFY (KANOYA (JMSDF) , JP) observed 2150 UTC 21 July 2019
Temperature: 26.0°C (79°F)
Dewpoint: 24.0°C (75°F) [RH = 89%]
Pressure (altimeter): 29.85 inches Hg (1011.0 mb)
Winds: from the SW (230 degrees) at 6 MPH (5 knots; 2.6 m/s)
Visibility: 6 or more miles (10+ km)
Ceiling: 1500 feet AGL
Clouds: few clouds at 300 feet AGL
scattered clouds at 1000 feet AGL
broken clouds at 1500 feet AGL
Weather: no significant weather observed at this time